Time;durP1;ratioP1;P1;durP2;ratioP2;P2;SDS_P1;SDS_P2;PMS_P1;PMS_P2;Temp;Humidity;BMP_temperature;BMP_pressure;BME280_temperature;BME280_humidity;BME280_pressure;Samples;Min_cycle;Max_cycle;Signal;HPM_P1;HPM_P2
2023/07/28 00:01:40;;;;;;;0.80;0.80;;;16.30;74.90;;;;;;5054186;28;20180;-72
2023/07/28 00:04:07;;;;;;;0.85;0.85;;;16.30;75.10;;;;;;5061526;28;20263;-72
2023/07/28 00:06:33;;;;;;;0.90;0.90;;;16.30;74.60;;;;;;5050058;28;20198;-72
2023/07/28 00:08:58;;;;;;;0.80;0.80;;;16.30;74.70;;;;;;5049811;28;20171;-72
2023/07/28 00:11:24;;;;;;;0.75;0.75;;;16.40;75.00;;;;;;5050132;28;20576;-72
2023/07/28 00:13:50;;;;;;;1.05;1.05;;;16.30;74.80;;;;;;5057566;28;20694;-72
2023/07/28 00:16:16;;;;;;;1.25;1.25;;;16.30;75.60;;;;;;5047770;28;20183;-72
2023/07/28 00:18:41;;;;;;;1.20;1.20;;;16.30;75.40;;;;;;5051551;28;20209;-72
2023/07/28 00:21:07;;;;;;;1.23;1.23;;;16.20;75.30;;;;;;5053952;28;20192;-71
2023/07/28 00:23:33;;;;;;;1.30;1.30;;;16.20;75.70;;;;;;5045493;28;20646;-72
2023/07/28 00:25:58;;;;;;;1.63;1.63;;;16.10;76.20;;;;;;5050760;28;20615;-72
2023/07/28 00:28:24;;;;;;;1.45;1.45;;;16.00;76.30;;;;;;5050049;28;20275;-72
2023/07/28 00:30:50;;;;;;;1.17;1.17;;;16.00;76.60;;;;;;5054978;28;20280;-72
2023/07/28 00:33:16;;;;;;;1.73;1.52;;;15.90;76.90;;;;;;5053076;28;20226;-72
2023/07/28 00:35:42;;;;;;;1.52;1.42;;;15.90;77.10;;;;;;5056775;28;20180;-72
2023/07/28 00:38:08;;;;;;;1.63;1.52;;;15.80;77.20;;;;;;5052318;28;20179;-72
2023/07/28 00:40:35;;;;;;;3.60;1.38;;;15.80;77.10;;;;;;5051166;28;20563;-72
2023/07/28 00:43:01;;;;;;;1.55;1.55;;;15.70;77.30;;;;;;5053430;28;20606;-71
2023/07/28 00:45:27;;;;;;;1.17;1.17;;;15.70;77.60;;;;;;5051644;28;20306;-72
2023/07/28 00:47:52;;;;;;;1.30;1.20;;;15.60;77.90;;;;;;5054071;28;20236;-72
2023/07/28 00:50:18;;;;;;;1.85;1.75;;;15.50;77.80;;;;;;5048846;28;20266;-72
2023/07/28 00:52:46;;;;;;;1.23;1.23;;;15.50;78.00;;;;;;5050912;28;20187;-73
2023/07/28 00:55:12;;;;;;;1.50;1.40;;;15.40;78.30;;;;;;5046201;28;20677;-72
2023/07/28 00:57:39;;;;;;;1.17;1.17;;;15.40;78.30;;;;;;5050023;28;20180;-72
2023/07/28 01:00:05;;;;;;;1.30;1.30;;;15.40;78.00;;;;;;5050644;28;20176;-72
2023/07/28 01:02:31;;;;;;;1.40;1.40;;;15.30;78.90;;;;;;5050295;28;20176;-72
2023/07/28 01:04:57;;;;;;;0.90;0.90;;;15.20;78.40;;;;;;5050482;28;20182;-72
2023/07/28 01:07:27;;;;;;;1.20;1.20;;;15.10;78.50;;;;;;5050194;28;20183;-72
2023/07/28 01:10:01;;;;;;;1.25;1.25;;;15.10;78.50;;;;;;5058578;28;20187;-72
2023/07/28 01:12:27;;;;;;;1.60;1.40;;;15.10;78.60;;;;;;5052214;28;20206;-72
2023/07/28 01:14:53;;;;;;;1.50;1.45;;;15.00;79.20;;;;;;5050866;28;20193;-71
2023/07/28 01:17:19;;;;;;;1.35;1.35;;;15.00;79.20;;;;;;5056768;28;20187;-72
2023/07/28 01:19:45;;;;;;;1.33;1.33;;;14.90;79.60;;;;;;5047140;28;20181;-71
2023/07/28 01:22:29;;;;;;;1.23;1.23;;;14.90;79.50;;;;;;5048678;28;20673;-71
2023/07/28 01:25:26;;;;;;;1.30;1.30;;;14.90;79.60;;;;;;5052126;28;20184;-72
2023/07/28 01:27:53;;;;;;;1.23;1.23;;;14.80;79.40;;;;;;5043618;28;20562;-72
2023/07/28 01:30:20;;;;;;;1.17;1.17;;;14.70;80.20;;;;;;5056574;28;20180;-72
2023/07/28 01:32:47;;;;;;;1.10;1.10;;;14.70;80.00;;;;;;5047917;28;20570;-72
2023/07/28 01:35:13;;;;;;;1.25;1.25;;;14.70;80.20;;;;;;5052973;28;20180;-72
2023/07/28 01:37:38;;;;;;;1.08;1.08;;;14.60;80.50;;;;;;5052739;28;20235;-72
2023/07/28 01:40:05;;;;;;;1.23;1.23;;;14.50;80.60;;;;;;5049057;28;20175;-71
2023/07/28 01:42:30;;;;;;;0.82;0.82;;;14.50;81.00;;;;;;5051479;28;20182;-72
2023/07/28 01:44:56;;;;;;;1.30;1.30;;;14.50;80.40;;;;;;5056301;28;20647;-72
2023/07/28 01:47:21;;;;;;;1.10;1.10;;;14.50;80.70;;;;;;5055414;28;20182;-71
2023/07/28 01:49:47;;;;;;;1.25;1.25;;;14.40;81.00;;;;;;5047345;28;20209;-72
2023/07/28 01:52:13;;;;;;;1.23;1.23;;;14.40;80.90;;;;;;5057295;28;20299;-72
2023/07/28 01:54:38;;;;;;;1.30;1.30;;;14.40;81.20;;;;;;5049200;28;20255;-71
2023/07/28 01:57:04;;;;;;;1.38;1.38;;;14.40;81.20;;;;;;5045429;28;20713;-72
2023/07/28 01:59:30;;;;;;;1.17;1.17;;;14.40;81.00;;;;;;5049223;28;20172;-72
2023/07/28 02:01:55;;;;;;;1.27;1.27;;;14.40;81.20;;;;;;5052972;28;20175;-72
2023/07/28 02:04:21;;;;;;;1.30;1.20;;;14.30;81.10;;;;;;5047886;28;20211;-72
2023/07/28 02:06:47;;;;;;;1.20;1.20;;;14.30;81.10;;;;;;5052237;28;20229;-72
2023/07/28 02:09:12;;;;;;;1.20;1.20;;;14.30;81.20;;;;;;5046797;28;20211;-71
2023/07/28 02:11:38;;;;;;;1.25;1.25;;;14.30;81.40;;;;;;5054937;28;20204;-71
2023/07/28 02:14:04;;;;;;;1.55;1.27;;;14.30;81.10;;;;;;5048370;28;20184;-71
2023/07/28 02:16:32;;;;;;;0.93;0.75;;;14.30;81.20;;;;;;5050927;28;20186;-71
2023/07/28 02:18:57;;;;;;;1.65;1.00;;;14.30;81.30;;;;;;5051135;28;20183;-71
2023/07/28 02:21:23;;;;;;;0.80;0.80;;;14.20;81.30;;;;;;5049251;28;20175;-71
2023/07/28 02:23:49;;;;;;;0.80;0.80;;;14.20;81.20;;;;;;5046701;28;20183;-72
2023/07/28 02:26:14;;;;;;;0.80;0.80;;;14.20;81.00;;;;;;5048191;28;20263;-71
2023/07/28 02:28:40;;;;;;;0.77;0.77;;;14.20;80.90;;;;;;5050662;28;20235;-72
2023/07/28 02:31:06;;;;;;;0.70;0.70;;;14.20;81.00;;;;;;5046314;28;20216;-72
2023/07/28 02:33:35;;;;;;;0.80;0.80;;;14.20;81.00;;;;;;5052009;28;20198;-72
2023/07/28 02:36:01;;;;;;;1.23;0.65;;;14.20;81.10;;;;;;5052001;28;20277;-72
2023/07/28 02:38:26;;;;;;;0.77;0.77;;;14.10;81.10;;;;;;5050761;28;20317;-70
2023/07/28 02:40:52;;;;;;;0.63;0.63;;;14.10;81.00;;;;;;5059003;28;20186;-71
2023/07/28 02:43:17;;;;;;;0.70;0.70;;;14.10;81.10;;;;;;5052086;28;20190;-72
2023/07/28 02:45:43;;;;;;;0.70;0.70;;;14.10;81.00;;;;;;5053611;28;20175;-71
2023/07/28 02:48:09;;;;;;;1.25;0.90;;;14.10;80.90;;;;;;5054103;28;20188;-72
2023/07/28 02:50:34;;;;;;;1.38;0.90;;;14.10;81.20;;;;;;5055061;28;20888;-71
2023/07/28 02:53:00;;;;;;;0.73;0.73;;;14.10;81.10;;;;;;5054921;28;20289;-72
2023/07/28 02:55:26;;;;;;;0.90;0.90;;;14.00;81.00;;;;;;5055039;28;20259;-72
2023/07/28 02:57:51;;;;;;;0.70;0.70;;;14.00;81.00;;;;;;5052009;28;20173;-72
2023/07/28 03:00:17;;;;;;;0.80;0.80;;;14.00;81.00;;;;;;5052705;28;20258;-72
2023/07/28 03:02:42;;;;;;;0.65;0.65;;;14.00;81.10;;;;;;5056643;28;20203;-72
2023/07/28 03:05:08;;;;;;;0.77;0.77;;;14.00;81.00;;;;;;5052989;28;20725;-72
2023/07/28 03:07:34;;;;;;;1.30;0.88;;;14.00;81.10;;;;;;5054378;28;20845;-72
2023/07/28 03:09:59;;;;;;;0.65;0.65;;;14.00;80.90;;;;;;5061595;28;20430;-71
2023/07/28 03:12:25;;;;;;;0.90;0.90;;;14.00;81.20;;;;;;5056654;28;20264;-72
2023/07/28 03:14:51;;;;;;;0.90;0.90;;;14.00;81.00;;;;;;5052389;28;20184;-72
2023/07/28 03:17:16;;;;;;;1.00;1.00;;;14.00;81.20;;;;;;5052878;28;20180;-72
2023/07/28 03:19:42;;;;;;;0.90;0.90;;;14.00;81.10;;;;;;5051258;28;20646;-72
2023/07/28 03:22:07;;;;;;;1.00;1.00;;;14.00;81.40;;;;;;5050995;28;20731;-71
2023/07/28 03:24:33;;;;;;;1.20;1.17;;;14.00;81.40;;;;;;5051996;28;20230;-72
2023/07/28 03:26:59;;;;;;;0.98;0.98;;;14.00;81.40;;;;;;5054771;28;20180;-72
2023/07/28 03:29:24;;;;;;;1.90;1.05;;;14.00;81.60;;;;;;5054538;28;20179;-71
2023/07/28 03:31:50;;;;;;;1.75;1.65;;;14.00;81.70;;;;;;5057816;28;20211;-72
2023/07/28 03:34:15;;;;;;;1.45;1.45;;;14.00;81.80;;;;;;5055057;28;20215;-71
2023/07/28 03:36:41;;;;;;;1.95;1.85;;;14.00;81.80;;;;;;5055792;28;20963;-71
2023/07/28 03:39:07;;;;;;;1.70;1.65;;;14.00;81.80;;;;;;5051940;28;20244;-71
2023/07/28 03:41:32;;;;;;;1.88;1.77;;;13.90;83.10;;;;;;5053311;28;20179;-73
2023/07/28 03:43:58;;;;;;;1.67;1.58;;;13.90;82.20;;;;;;5053444;28;20187;-72
2023/07/28 03:46:24;;;;;;;1.50;1.50;;;13.90;82.30;;;;;;5055692;28;20206;-72
2023/07/28 03:48:49;;;;;;;1.48;1.38;;;13.90;81.90;;;;;;5057276;28;20258;-72
2023/07/28 03:51:15;;;;;;;1.42;1.42;;;13.80;82.60;;;;;;5051308;28;20208;-72
2023/07/28 03:53:41;;;;;;;3.47;1.20;;;13.80;82.60;;;;;;5051793;28;20238;-72
2023/07/28 03:56:06;;;;;;;1.27;1.27;;;13.90;82.00;;;;;;5051900;28;20184;-71
2023/07/28 03:58:32;;;;;;;0.90;0.90;;;14.00;82.00;;;;;;5055289;28;20228;-73
2023/07/28 04:00:57;;;;;;;1.60;1.50;;;14.00;82.00;;;;;;5054976;28;20187;-72
2023/07/28 04:03:23;;;;;;;1.60;1.60;;;14.00;82.00;;;;;;5052899;28;20267;-72
2023/07/28 04:05:49;;;;;;;1.23;1.23;;;14.00;82.20;;;;;;5050649;28;20187;-73
2023/07/28 04:08:14;;;;;;;1.85;1.70;;;14.10;82.00;;;;;;5052949;28;20195;-72
2023/07/28 04:10:40;;;;;;;1.27;1.20;;;14.10;81.80;;;;;;5049428;28;20210;-72
2023/07/28 04:13:05;;;;;;;1.38;1.38;;;14.10;81.90;;;;;;5052713;28;20183;-72
2023/07/28 04:15:31;;;;;;;1.15;1.15;;;14.00;82.50;;;;;;5049623;28;20176;-73
2023/07/28 04:17:57;;;;;;;1.48;1.23;;;13.90;82.00;;;;;;5050145;28;20184;-72
2023/07/28 04:20:22;;;;;;;1.20;1.20;;;14.00;82.20;;;;;;5051187;28;20693;-70
2023/07/28 04:22:48;;;;;;;0.90;0.90;;;14.00;82.00;;;;;;5050976;28;20190;-71
2023/07/28 04:25:14;;;;;;;3.22;1.13;;;14.00;81.90;;;;;;5050130;28;20642;-72
2023/07/28 04:27:39;;;;;;;1.33;1.27;;;14.10;81.70;;;;;;5051949;28;20233;-71
2023/07/28 04:30:06;;;;;;;1.05;1.05;;;14.10;81.70;;;;;;5050857;28;20176;-72
2023/07/28 04:32:31;;;;;;;0.93;0.93;;;14.00;82.60;;;;;;5051346;28;20214;-71
2023/07/28 04:34:57;;;;;;;1.30;1.30;;;14.00;82.20;;;;;;5050619;28;20596;-73
2023/07/28 04:37:23;;;;;;;1.38;1.33;;;14.00;82.40;;;;;;5056844;28;20179;-72
2023/07/28 04:39:48;;;;;;;1.05;1.05;;;14.10;81.90;;;;;;5055799;28;20784;-72
2023/07/28 04:42:14;;;;;;;1.20;1.20;;;14.20;81.80;;;;;;5052933;28;20700;-72
2023/07/28 04:44:40;;;;;;;1.40;1.30;;;14.20;81.40;;;;;;5051039;28;20318;-73
2023/07/28 04:47:06;;;;;;;1.33;1.33;;;14.30;81.20;;;;;;5054967;28;20214;-74
2023/07/28 04:49:32;;;;;;;1.30;1.30;;;14.40;81.00;;;;;;5051451;28;20183;-74
2023/07/28 04:51:58;;;;;;;1.27;1.17;;;14.50;80.90;;;;;;5047911;28;20207;-74
2023/07/28 04:54:23;;;;;;;1.20;1.20;;;14.50;80.80;;;;;;5052863;28;20179;-74
2023/07/28 04:56:53;;;;;;;1.20;1.20;;;14.60;80.60;;;;;;5048087;28;20191;-74
2023/07/28 04:59:18;;;;;;;1.20;1.20;;;14.60;80.50;;;;;;5050308;28;20179;-74
2023/07/28 05:01:44;;;;;;;1.10;1.10;;;14.70;80.50;;;;;;5050219;28;20179;-74
2023/07/28 05:04:10;;;;;;;0.98;0.98;;;14.80;80.40;;;;;;5050527;28;20183;-72
2023/07/28 05:06:35;;;;;;;1.45;1.45;;;14.80;80.50;;;;;;5050369;28;20184;-72
2023/07/28 05:09:01;;;;;;;1.20;1.20;;;14.90;80.60;;;;;;5048954;28;20234;-72
2023/07/28 05:11:27;;;;;;;1.20;1.20;;;14.90;80.60;;;;;;5045872;28;20207;-72
2023/07/28 05:13:53;;;;;;;1.05;1.05;;;15.00;80.50;;;;;;5046443;28;20179;-72
2023/07/28 05:16:18;;;;;;;0.95;0.95;;;15.00;80.40;;;;;;5048839;28;20723;-73
2023/07/28 05:18:44;;;;;;;1.10;1.10;;;15.10;80.50;;;;;;5051181;28;20179;-72
2023/07/28 05:21:09;;;;;;;1.30;1.30;;;15.10;80.30;;;;;;5075528;28;20214;-72
2023/07/28 05:23:35;;;;;;;2.28;1.88;;;15.20;80.00;;;;;;5040435;28;20183;-74
2023/07/28 05:26:31;;;;;;;1.17;1.17;;;15.20;79.80;;;;;;5004740;28;21382;-74
2023/07/28 05:28:56;;;;;;;1.63;1.55;;;15.30;80.20;;;;;;5007107;28;20184;-73
2023/07/28 05:31:22;;;;;;;1.58;1.50;;;15.30;79.70;;;;;;5002677;28;20659;-72
2023/07/28 05:33:48;;;;;;;2.85;1.73;;;15.40;79.30;;;;;;5002552;28;20188;-76
2023/07/28 05:36:13;;;;;;;3.75;1.52;;;15.40;79.50;;;;;;5001210;28;20281;-74
2023/07/28 05:38:39;;;;;;;1.70;1.60;;;15.50;79.60;;;;;;5005428;28;20204;-74
2023/07/28 05:41:05;;;;;;;1.17;1.17;;;15.50;79.30;;;;;;5002238;28;20181;-73
2023/07/28 05:43:31;;;;;;;1.35;1.35;;;15.60;79.70;;;;;;5003752;28;20188;-75
2023/07/28 05:46:00;;;;;;;1.58;1.50;;;15.70;79.10;;;;;;5005551;28;20233;-73
2023/07/28 05:48:26;;;;;;;1.58;1.58;;;15.70;78.90;;;;;;5001419;28;20598;-73
2023/07/28 05:50:53;;;;;;;2.70;1.65;;;15.80;79.10;;;;;;5007897;28;20178;-73
2023/07/28 05:53:22;;;;;;;1.50;1.50;;;15.80;78.90;;;;;;5002044;28;20196;-74
2023/07/28 05:55:48;;;;;;;1.48;1.48;;;15.90;78.50;;;;;;4999902;28;20173;-74
2023/07/28 05:58:14;;;;;;;1.45;1.45;;;15.90;78.30;;;;;;5005104;28;20726;-75
2023/07/28 06:00:40;;;;;;;1.65;1.65;;;16.00;78.20;;;;;;5013401;28;20187;-75
2023/07/28 06:03:11;;;;;;;1.73;1.63;;;16.00;78.60;;;;;;5005441;28;20173;-75
2023/07/28 06:05:39;;;;;;;3.22;1.50;;;16.10;77.80;;;;;;5002527;28;20248;-76
2023/07/28 06:08:04;;;;;;;6.22;2.00;;;16.10;77.50;;;;;;4998745;28;20255;-72
2023/07/28 06:10:30;;;;;;;1.80;1.80;;;16.20;78.00;;;;;;5009118;28;20267;-72
2023/07/28 06:12:55;;;;;;;1.60;1.50;;;16.30;77.70;;;;;;5004137;28;20181;-70
2023/07/28 06:15:21;;;;;;;1.42;1.42;;;16.40;78.00;;;;;;5006136;28;20200;-73
2023/07/28 06:17:47;;;;;;;2.53;1.50;;;16.40;77.30;;;;;;5005995;28;20798;-72
2023/07/28 06:20:12;;;;;;;1.88;1.23;;;16.50;77.40;;;;;;5005254;28;20204;-71
2023/07/28 06:22:38;;;;;;;2.25;1.70;;;16.50;77.90;;;;;;5003857;28;20184;-73
2023/07/28 06:25:10;;;;;;;2.97;2.38;;;16.60;77.40;;;;;;5011006;28;20220;-71
2023/07/28 06:27:42;;;;;;;3.08;1.80;;;16.60;77.30;;;;;;5024135;28;20227;-75
2023/07/28 06:30:08;;;;;;;3.17;1.65;;;16.70;77.20;;;;;;5017275;28;20184;-73
2023/07/28 06:32:34;;;;;;;2.70;2.50;;;16.80;77.20;;;;;;5020707;28;20205;-77
2023/07/28 06:35:00;;;;;;;1.88;1.88;;;16.80;77.20;;;;;;5025301;28;20279;-74
2023/07/28 06:37:25;;;;;;;4.78;2.20;;;16.90;77.10;;;;;;5016131;28;20200;-73
2023/07/28 06:39:51;;;;;;;1.40;1.40;;;17.00;77.00;;;;;;5013296;28;20191;-74
2023/07/28 06:42:23;;;;;;;1.65;1.63;;;17.10;77.10;;;;;;5015403;28;20177;-75
2023/07/28 06:44:50;;;;;;;3.33;2.00;;;17.20;76.20;;;;;;5011208;28;20794;-75
2023/07/28 06:47:15;;;;;;;3.00;2.15;;;17.30;76.60;;;;;;5014580;28;20271;-76
2023/07/28 06:49:41;;;;;;;1.55;1.55;;;17.30;76.50;;;;;;5007078;28;20268;-74
2023/07/28 06:52:07;;;;;;;2.53;2.10;;;17.40;76.20;;;;;;5026086;28;20219;-74
2023/07/28 06:54:32;;;;;;;3.60;1.92;;;17.50;76.40;;;;;;5016320;28;20870;-74
2023/07/28 06:56:58;;;;;;;2.45;2.10;;;17.60;75.80;;;;;;5012048;28;20797;-75
2023/07/28 06:59:23;;;;;;;7.53;2.85;;;17.70;75.50;;;;;;5019387;28;20185;-73
2023/07/28 07:01:49;;;;;;;4.35;1.98;;;17.80;75.60;;;;;;5018079;28;20634;-74
2023/07/28 07:04:15;;;;;;;2.20;2.10;;;17.90;74.90;;;;;;5019010;28;20185;-74
2023/07/28 07:06:41;;;;;;;1.98;1.88;;;18.00;74.80;;;;;;5018847;28;20213;-76
2023/07/28 07:09:07;;;;;;;3.33;1.73;;;;;;;;;;5019878;28;20216;-72
2023/07/28 07:11:33;;;;;;;2.25;1.80;;;18.20;74.20;;;;;;5021083;28;20312;-73
2023/07/28 07:13:59;;;;;;;1.35;1.35;;;18.30;74.40;;;;;;5020504;28;20177;-71
2023/07/28 07:16:25;;;;;;;1.80;1.30;;;;;;;;;;5019679;28;20554;-71
2023/07/28 07:18:52;;;;;;;1.50;1.40;;;18.40;73.10;;;;;;5016727;28;20172;-73
2023/07/28 07:21:18;;;;;;;1.20;1.17;;;18.40;73.50;;;;;;5016585;28;20252;-71
2023/07/28 07:23:43;;;;;;;1.35;1.27;;;18.40;72.20;;;;;;5006870;28;20395;-71
2023/07/28 07:26:09;;;;;;;1.42;1.42;;;18.50;72.80;;;;;;5009581;28;20269;-71
2023/07/28 07:28:35;;;;;;;1.33;1.33;;;;;;;;;;5010089;28;20189;-71
2023/07/28 07:31:01;;;;;;;1.40;1.40;;;18.60;72.60;;;;;;5011805;28;20191;-72
2023/07/28 07:33:27;;;;;;;1.35;1.25;;;;;;;;;;5010188;28;20570;-71
2023/07/28 07:35:53;;;;;;;2.30;1.20;;;18.80;72.90;;;;;;5006974;28;20273;-73
2023/07/28 07:38:19;;;;;;;1.08;1.08;;;18.90;73.00;;;;;;5010671;28;20256;-72
2023/07/28 07:40:48;;;;;;;0.90;0.90;;;19.00;72.90;;;;;;5008187;28;20269;-71
2023/07/28 07:43:19;;;;;;;1.25;1.10;;;19.00;72.00;;;;;;5008272;28;20207;-72
2023/07/28 07:45:46;;;;;;;1.40;1.35;;;19.00;72.10;;;;;;5010407;28;20193;-72
2023/07/28 07:48:12;;;;;;;2.33;1.60;;;19.10;71.50;;;;;;5007484;28;20690;-71
2023/07/28 07:50:38;;;;;;;1.50;1.50;;;19.20;71.40;;;;;;5014593;28;20181;-72
2023/07/28 07:53:04;;;;;;;2.85;1.23;;;;;;;;;;5011094;28;20658;-71
2023/07/28 07:55:31;;;;;;;1.40;1.33;;;19.40;71.60;;;;;;5009711;28;20224;-71
2023/07/28 07:57:57;;;;;;;6.50;2.03;;;19.40;71.60;;;;;;5009406;28;20189;-72
2023/07/28 08:00:23;;;;;;;2.38;1.83;;;19.50;71.20;;;;;;5011511;28;20181;-71
2023/07/28 08:02:49;;;;;;;3.22;2.33;;;19.60;70.90;;;;;;5005224;28;20190;-70
2023/07/28 08:05:15;;;;;;;2.08;1.88;;;19.60;70.70;;;;;;5008287;28;20208;-72
2023/07/28 08:07:41;;;;;;;2.65;2.45;;;19.70;70.60;;;;;;5001560;28;20181;-72
2023/07/28 08:10:07;;;;;;;1.20;1.08;;;19.80;70.60;;;;;;5010302;28;20176;-72
2023/07/28 08:12:33;;;;;;;7.80;3.95;;;19.90;70.90;;;;;;5009050;28;20250;-72
2023/07/28 08:14:59;;;;;;;2.25;1.73;;;20.00;70.40;;;;;;5009291;28;20651;-69
2023/07/28 08:17:25;;;;;;;1.10;1.10;;;;;;;;;;5013992;28;20196;-71
2023/07/28 08:19:51;;;;;;;1.73;1.08;;;;;;;;;;5007968;28;20192;-71
2023/07/28 08:22:17;;;;;;;1.00;1.00;;;;;;;;;;5008960;28;20831;-68
2023/07/28 08:24:43;;;;;;;1.10;1.10;;;20.20;69.90;;;;;;5010579;28;20216;-70
2023/07/28 08:27:08;;;;;;;1.20;1.20;;;20.30;69.80;;;;;;5009919;28;20188;-69
2023/07/28 08:29:34;;;;;;;3.92;1.40;;;20.30;69.40;;;;;;5009854;28;20173;-69
2023/07/28 08:31:59;;;;;;;1.20;1.20;;;20.40;69.60;;;;;;5008869;28;20262;-69
2023/07/28 08:34:25;;;;;;;2.75;1.65;;;20.50;69.30;;;;;;5009712;28;20177;-69
2023/07/28 08:36:51;;;;;;;1.85;1.17;;;20.60;69.00;;;;;;5005364;28;20204;-70
2023/07/28 08:39:18;;;;;;;1.17;1.17;;;20.70;68.80;;;;;;5007792;28;20177;-70
2023/07/28 08:41:43;;;;;;;5.75;1.40;;;20.80;68.10;;;;;;5013269;28;20549;-69
2023/07/28 08:44:09;;;;;;;1.37;1.20;;;20.90;68.30;;;;;;5010766;28;20183;-70
2023/07/28 08:46:35;;;;;;;1.83;1.40;;;21.00;68.10;;;;;;5009298;28;20221;-70
2023/07/28 08:49:01;;;;;;;1.27;1.15;;;21.10;68.10;;;;;;5010438;28;20635;-70
2023/07/28 08:51:27;;;;;;;3.88;1.23;;;21.20;67.70;;;;;;5008752;28;20681;-70
2023/07/28 08:53:53;;;;;;;2.30;1.17;;;21.40;67.30;;;;;;4998934;28;20185;-70
2023/07/28 08:56:20;;;;;;;1.27;1.17;;;21.50;68.00;;;;;;5007589;28;20180;-70
2023/07/28 08:58:45;;;;;;;2.15;1.08;;;21.60;67.50;;;;;;5005597;28;20569;-70
2023/07/28 09:01:11;;;;;;;1.00;1.00;;;21.70;66.80;;;;;;5007153;28;20264;-70
2023/07/28 09:03:41;;;;;;;2.17;1.88;;;21.80;66.40;;;;;;5003399;28;20177;-69
2023/07/28 09:06:10;;;;;;;3.10;1.35;;;21.90;66.60;;;;;;5006538;28;20243;-70
2023/07/28 09:08:37;;;;;;;1.08;1.08;;;22.00;66.80;;;;;;5008602;28;20257;-70
2023/07/28 09:11:05;;;;;;;3.22;1.10;;;22.10;66.70;;;;;;5003831;28;20208;-70
2023/07/28 09:13:43;;;;;;;1.08;1.08;;;22.30;66.30;;;;;;5007723;28;20830;-70
2023/07/28 09:16:18;;;;;;;1.38;1.38;;;22.40;66.30;;;;;;5006212;28;20238;-70
2023/07/28 09:18:44;;;;;;;1.27;1.27;;;22.60;64.90;;;;;;5000421;28;20204;-70
2023/07/28 09:21:20;;;;;;;2.88;1.30;;;22.70;65.10;;;;;;5002704;28;20696;-70
2023/07/28 09:23:47;;;;;;;1.30;1.30;;;22.90;64.80;;;;;;4998382;28;20176;-70
2023/07/28 09:26:15;;;;;;;1.35;1.10;;;23.00;64.10;;;;;;5006580;28;20221;-70
2023/07/28 09:28:41;;;;;;;1.30;1.30;;;23.10;64.20;;;;;;5004569;28;20264;-69
2023/07/28 09:31:08;;;;;;;1.48;1.48;;;23.20;63.50;;;;;;5006444;28;20184;-70
2023/07/28 09:33:35;;;;;;;1.50;1.50;;;23.30;63.20;;;;;;5009838;28;20181;-70
2023/07/28 09:36:17;;;;;;;1.30;1.30;;;23.50;63.00;;;;;;5014273;28;20621;-70
2023/07/28 09:38:43;;;;;;;1.83;1.30;;;23.60;61.70;;;;;;5007940;28;20196;-70
2023/07/28 09:41:11;;;;;;;1.40;1.30;;;23.70;61.70;;;;;;5005839;28;20177;-70
2023/07/28 09:43:41;;;;;;;1.38;1.38;;;23.90;61.80;;;;;;5002811;28;20181;-70
2023/07/28 09:46:10;;;;;;;1.20;1.10;;;24.10;62.50;;;;;;5004638;28;20605;-71
2023/07/28 09:48:38;;;;;;;1.52;1.05;;;24.30;62.50;;;;;;5007201;28;20185;-71
2023/07/28 09:51:14;;;;;;;1.02;1.02;;;24.40;61.50;;;;;;5008964;28;20189;-70
2023/07/28 09:53:46;;;;;;;1.08;1.08;;;24.70;61.30;;;;;;5003282;28;20183;-70
2023/07/28 09:56:16;;;;;;;1.33;1.13;;;24.90;61.40;;;;;;5004237;28;20232;-70
2023/07/28 09:58:49;;;;;;;1.17;1.17;;;25.20;61.10;;;;;;5012032;28;20208;-70
2023/07/28 10:01:15;;;;;;;1.30;1.30;;;25.40;57.70;;;;;;5007177;28;20263;-70
2023/07/28 10:03:41;;;;;;;1.50;1.30;;;25.70;56.30;;;;;;5002400;28;20268;-71
2023/07/28 10:06:07;;;;;;;1.17;1.17;;;26.00;57.50;;;;;;5005216;28;20213;-71
2023/07/28 10:08:33;;;;;;;1.30;1.02;;;26.30;55.90;;;;;;5006992;28;20188;-70
2023/07/28 10:10:59;;;;;;;1.33;1.30;;;26.50;56.80;;;;;;5000171;28;20177;-71
2023/07/28 10:13:26;;;;;;;2.13;1.35;;;26.70;54.80;;;;;;5005504;28;20177;-70
2023/07/28 10:15:52;;;;;;;1.30;1.30;;;26.90;55.80;;;;;;5008538;28;20204;-70
2023/07/28 10:18:21;;;;;;;1.98;1.83;;;27.30;55.20;;;;;;5008682;28;20174;-70
2023/07/28 10:20:49;;;;;;;3.20;1.83;;;27.80;55.20;;;;;;5006531;28;20180;-70
2023/07/28 10:23:22;;;;;;;1.27;1.27;;;28.40;54.00;;;;;;5010107;28;20188;-70
2023/07/28 10:26:07;;;;;;;8.90;2.08;;;29.10;52.20;;;;;;5012306;28;20291;-70
2023/07/28 10:28:40;;;;;;;1.35;1.35;;;29.60;51.00;;;;;;5007528;28;20185;-70
2023/07/28 10:31:07;;;;;;;1.88;1.70;;;30.20;49.60;;;;;;5003136;28;20239;-70
2023/07/28 10:33:35;;;;;;;7.35;1.70;;;30.80;49.90;;;;;;5010088;28;20649;-70
2023/07/28 10:36:33;;;;;;;1.55;1.25;;;31.80;48.80;;;;;;5006015;28;20560;-71
2023/07/28 10:39:04;;;;;;;2.22;0.98;;;31.90;48.40;;;;;;5011738;28;20180;-71
2023/07/28 10:41:33;;;;;;;1.35;1.30;;;32.50;47.20;;;;;;5010699;28;20173;-71
2023/07/28 10:43:58;;;;;;;1.55;1.27;;;32.90;48.30;;;;;;5010400;28;20181;-71
2023/07/28 10:46:26;;;;;;;1.52;1.42;;;33.10;45.70;;;;;;5008545;28;20593;-70
2023/07/28 10:48:53;;;;;;;1.42;1.33;;;33.30;45.60;;;;;;5013801;28;20268;-71
2023/07/28 10:51:28;;;;;;;2.13;1.35;;;33.40;45.60;;;;;;5010357;28;20168;-71
2023/07/28 10:54:00;;;;;;;1.50;1.33;;;33.60;45.40;;;;;;5009458;28;20772;-71
2023/07/28 10:56:26;;;;;;;3.22;1.45;;;33.70;44.90;;;;;;5016080;28;20180;-70
2023/07/28 10:59:03;;;;;;;2.00;1.30;;;33.50;45.40;;;;;;5013528;28;20646;-67
2023/07/28 11:01:37;;;;;;;21.02;2.33;;;33.70;46.20;;;;;;5036070;28;20181;-70
2023/07/28 11:04:23;;;;;;;2.28;1.40;;;34.10;45.10;;;;;;5005201;28;20176;-70
2023/07/28 11:06:50;;;;;;;1.50;1.40;;;34.70;45.00;;;;;;5006887;28;20188;-69
2023/07/28 11:09:20;;;;;;;1.10;1.10;;;35.30;43.20;;;;;;5009631;28;20176;-69
2023/07/28 11:11:46;;;;;;;7.88;1.35;;;35.50;45.30;;;;;;5010369;28;20264;-70
2023/07/28 11:14:12;;;;;;;6.82;1.80;;;35.80;44.40;;;;;;5011097;28;20176;-70
2023/07/28 11:16:39;;;;;;;3.13;1.40;;;36.20;43.20;;;;;;5007880;28;20177;-69
2023/07/28 11:19:16;;;;;;;1.38;1.33;;;36.70;43.20;;;;;;5013499;28;20255;-70
2023/07/28 11:21:42;;;;;;;3.05;1.13;;;37.10;42.70;;;;;;5008298;28;20184;-70
